This is the latest recevied weather packets stored in our database for station/object S51UL-6. If no packets are shown the sender has not sent any weather packets the latest 10 day(s).
| Time | Temp. | Humidity | Pressure | Rain* | Wind** | Luminosity | Snow |
|---|---|---|---|---|---|---|---|
| 1787662109 | 28.33° C | 57% | 1012.7 hPa | 0 mm | - | - | - |
| 1787661808 | 28.33° C | 56% | 1012.8 hPa | 0 mm | - | - | - |
| 1787661508 | 28.33° C | 58% | 1012.7 hPa | 0 mm | - | - | - |
| 1787661208 | 27.78° C | 58% | 1012.9 hPa | 0 mm | - | - | - |
| 1787660909 | 27.78° C | 59% | 1012.9 hPa | 0 mm | - | - | - |
| 1787660608 | 27.78° C | 59% | 1012.8 hPa | 0 mm | - | - | - |
| 1787660308 | 27.22° C | 59% | 1013 hPa | 0 mm | - | - | - |
| 1787660008 | 26.67° C | 59% | 1013 hPa | 0 mm | - | - | - |
| 1787659709 | 26.67° C | 59% | 1013.1 hPa | 0 mm | - | - | - |
| 1787658809 | 27.22° C | 56% | 1013.6 hPa | 0 mm | - | - | - |
| 1787658508 | 27.78° C | 55% | 1013.4 hPa | 0 mm | - | - | - |
| 1787658208 | 28.33° C | 54% | 1013.4 hPa | 0 mm | - | - | - |
| 1787657909 | 29.44° C | 53% | 1013.4 hPa | 0 mm | - | - | - |
| 1787657608 | 30° C | 53% | 1013.5 hPa | 0 mm | - | - | - |
| 1787657009 | 30° C | 56% | 1013.5 hPa | 0 mm | - | - | - |
| 1787656709 | 30° C | 56% | 1013.5 hPa | 0 mm | - | - | - |
| 1787655809 | 27.78° C | 63% | 1013.6 hPa | 0 mm | - | - | - |
| 1787655510 | 26.67° C | 65% | 1013.5 hPa | 0 mm | - | - | - |
| 1787655209 | 26.11° C | 68% | 1013.5 hPa | 0 mm | - | - | - |
| 1787654911 | 25° C | 69% | 1013.5 hPa | 0 mm | - | - | - |
| 1787654309 | 23.33° C | 71% | 1013.5 hPa | 0 mm | - | - | - |
| 1787654010 | 23.33° C | 72% | 1013.6 hPa | 0 mm | - | - | - |
| 1787653409 | 22.78° C | 74% | 1013.5 hPa | 0 mm | - | - | - |
| 1787653110 | 22.78° C | 74% | 1013.5 hPa | 0 mm | - | - | - |
| 1787652809 | 22.78° C | 76% | 1013.6 hPa | 0 mm | - | - | - |
* Rain latest hour (hover to see other rain measurements)
** Current wind speed in m/s (hover to see current wind gust speed)